createdAt,value
2022-12-05T00:01:19.287Z,1.20
2022-12-05T00:03:47.141Z,1.30
2022-12-05T00:06:13.988Z,1.40
2022-12-05T00:08:40.663Z,1.10
2022-12-05T00:11:14.572Z,0.87
2022-12-05T00:13:42.535Z,1.63
2022-12-05T00:16:10.400Z,1.00
2022-12-05T00:18:37.393Z,1.70
2022-12-05T00:21:04.252Z,2.00
2022-12-05T00:23:30.948Z,1.30
2022-12-05T00:25:57.635Z,1.70
2022-12-05T00:28:24.359Z,1.00
2022-12-05T00:30:51.096Z,1.20
2022-12-05T00:33:17.810Z,1.07
2022-12-05T00:35:44.603Z,1.30
2022-12-05T00:38:11.277Z,1.10
2022-12-05T00:40:38.010Z,1.10
2022-12-05T00:43:04.807Z,1.50
2022-12-05T00:45:31.634Z,1.30
2022-12-05T00:47:58.430Z,0.87
2022-12-05T00:50:25.206Z,1.30
2022-12-05T00:52:51.920Z,1.33
2022-12-05T00:55:18.572Z,1.30
2022-12-05T00:57:45.273Z,1.90
2022-12-05T01:00:12.395Z,1.10
2022-12-05T01:02:39.418Z,1.10
2022-12-05T01:05:06.494Z,1.13
2022-12-05T01:07:33.394Z,1.20
2022-12-05T01:10:00.178Z,1.20
2022-12-05T01:12:28.221Z,1.40
2022-12-05T01:14:55.129Z,1.00
2022-12-05T01:17:21.875Z,1.45
2022-12-05T01:19:48.566Z,1.00
2022-12-05T01:22:15.273Z,1.05
2022-12-05T01:24:42.079Z,1.30
2022-12-05T01:27:08.829Z,1.10
2022-12-05T01:29:35.624Z,1.15
2022-12-05T01:32:02.446Z,2.03
2022-12-05T01:34:29.622Z,1.15
2022-12-05T01:36:56.346Z,0.95
2022-12-05T01:39:23.128Z,0.80
2022-12-05T01:41:50.208Z,1.00
2022-12-05T01:44:16.933Z,1.10
2022-12-05T01:46:51.175Z,1.75
2022-12-05T01:49:34.139Z,1.50
2022-12-05T01:52:06.685Z,1.25
2022-12-05T01:54:33.455Z,1.17
2022-12-05T01:57:02.774Z,1.38
2022-12-05T01:59:30.637Z,1.50
2022-12-05T02:01:57.379Z,1.10
2022-12-05T02:04:24.155Z,1.50
2022-12-05T02:06:51.433Z,1.20
2022-12-05T02:09:18.132Z,1.70
2022-12-05T02:11:50.251Z,1.23
2022-12-05T02:14:39.370Z,1.33
2022-12-05T02:17:48.395Z,1.58
2022-12-05T02:20:33.248Z,1.20
2022-12-05T02:23:08.660Z,1.50
2022-12-05T02:25:38.224Z,1.17
2022-12-05T02:28:19.637Z,1.10
2022-12-05T02:30:51.104Z,1.70
2022-12-05T02:33:34.397Z,1.20
2022-12-05T02:36:07.578Z,1.60
2022-12-05T02:38:40.336Z,1.08
2022-12-05T02:41:27.525Z,1.20
2022-12-05T02:44:00.469Z,1.15
2022-12-05T02:46:28.647Z,1.40
2022-12-05T02:49:08.176Z,1.25
2022-12-05T02:51:37.892Z,1.15
2022-12-05T02:54:07.078Z,1.20
2022-12-05T02:56:34.279Z,1.23
2022-12-05T02:59:01.033Z,1.25
2022-12-05T03:01:30.225Z,1.45
2022-12-05T03:03:57.228Z,1.80
2022-12-05T03:06:34.941Z,1.20
2022-12-05T03:09:06.885Z,1.83
2022-12-05T03:11:37.571Z,1.23
2022-12-05T03:14:04.344Z,1.55
2022-12-05T03:16:40.123Z,1.52
2022-12-05T03:19:20.085Z,1.20
2022-12-05T03:22:06.553Z,1.23
2022-12-05T03:24:34.994Z,1.23
2022-12-05T03:27:23.171Z,1.50
2022-12-05T03:30:09.566Z,1.08
2022-12-05T03:32:43.003Z,1.23
2022-12-05T03:35:26.900Z,1.50
2022-12-05T03:38:13.923Z,1.63
2022-12-05T03:40:52.040Z,1.40
2022-12-05T03:43:30.758Z,1.10
2022-12-05T03:46:13.387Z,1.98
2022-12-05T03:48:48.990Z,1.88
2022-12-05T03:51:16.514Z,2.42
2022-12-05T03:53:47.904Z,1.75
2022-12-05T03:56:17.452Z,1.33
2022-12-05T03:58:58.547Z,1.40
2022-12-05T04:01:25.936Z,1.35
2022-12-05T04:04:05.435Z,1.48
2022-12-05T04:06:33.680Z,1.45
2022-12-05T04:09:05.028Z,1.55
2022-12-05T04:11:34.774Z,1.40
2022-12-05T04:14:06.253Z,1.67
2022-12-05T04:17:01.935Z,1.30
2022-12-05T04:20:12.004Z,2.60
2022-12-05T04:22:38.752Z,2.17
2022-12-05T04:25:25.453Z,1.70
2022-12-05T04:28:21.767Z,1.42
2022-12-05T04:31:10.097Z,1.50
2022-12-05T04:33:44.078Z,1.60
2022-12-05T04:36:25.462Z,1.42
2022-12-05T04:39:00.895Z,1.50
2022-12-05T04:41:33.922Z,1.60
2022-12-05T04:44:03.917Z,1.65
2022-12-05T04:46:30.623Z,1.63
2022-12-05T04:48:59.145Z,1.50
2022-12-05T04:51:27.080Z,1.60
2022-12-05T04:54:00.302Z,1.77
2022-12-05T04:56:29.255Z,1.27
2022-12-05T04:58:56.137Z,2.13
2022-12-05T05:01:34.037Z,1.20
2022-12-05T05:04:18.019Z,1.63
2022-12-05T05:06:44.858Z,1.10
2022-12-05T05:09:11.608Z,1.30
2022-12-05T05:11:38.418Z,1.35
2022-12-05T05:14:05.132Z,1.60
2022-12-05T05:16:37.220Z,1.40
2022-12-05T05:19:04.566Z,3.35
2022-12-05T05:21:36.255Z,1.50
2022-12-05T05:24:03.388Z,1.48
2022-12-05T05:26:30.586Z,1.20
2022-12-05T05:28:57.846Z,1.35
2022-12-05T05:31:24.679Z,1.75
2022-12-05T05:33:52.268Z,1.20
2022-12-05T05:36:19.089Z,1.30
2022-12-05T05:38:47.338Z,1.23
2022-12-05T05:41:28.091Z,1.60
2022-12-05T05:43:55.007Z,1.02
2022-12-05T05:46:24.468Z,1.95
2022-12-05T05:48:51.396Z,1.23
2022-12-05T05:51:19.511Z,1.40
2022-12-05T05:53:46.313Z,1.30
2022-12-05T05:56:20.977Z,1.52
2022-12-05T05:58:48.690Z,1.50
2022-12-05T06:01:20.413Z,1.25
2022-12-05T06:03:47.292Z,1.25
2022-12-05T06:06:14.767Z,0.93
2022-12-05T06:08:42.543Z,1.45
2022-12-05T06:11:13.893Z,1.20
2022-12-05T06:13:40.931Z,1.25
2022-12-05T06:16:08.828Z,1.30
2022-12-05T06:18:35.588Z,1.65
2022-12-05T06:21:02.323Z,1.42
2022-12-05T06:23:29.055Z,1.40
2022-12-05T06:25:56.199Z,1.95
2022-12-05T06:28:24.441Z,2.60
2022-12-05T06:30:51.616Z,2.97
2022-12-05T06:33:18.681Z,3.03
2022-12-05T06:35:46.165Z,2.30
2022-12-05T06:38:13.015Z,2.50
2022-12-05T06:40:40.931Z,1.85
2022-12-05T06:43:07.712Z,1.80
2022-12-05T06:45:34.506Z,1.20
2022-12-05T06:48:01.308Z,2.58
2022-12-05T06:50:28.029Z,1.25
2022-12-05T06:52:54.799Z,3.42
2022-12-05T06:55:21.615Z,2.40
2022-12-05T06:57:48.316Z,5.20
2022-12-05T07:00:34.104Z,5.47
2022-12-05T07:03:00.856Z,4.35
2022-12-05T07:05:27.668Z,3.40
2022-12-05T07:07:54.500Z,3.55
2022-12-05T07:10:21.240Z,2.30
2022-12-05T07:12:48.010Z,2.28
2022-12-05T07:15:14.790Z,2.35
2022-12-05T07:17:41.591Z,2.80
2022-12-05T07:20:10.397Z,2.55
2022-12-05T07:22:37.274Z,2.05
2022-12-05T07:25:04.770Z,2.35
2022-12-05T07:27:31.484Z,1.67
2022-12-05T07:29:58.516Z,2.67
2022-12-05T07:32:25.456Z,2.20
2022-12-05T07:34:55.269Z,2.13
2022-12-05T07:37:22.526Z,2.13
2022-12-05T07:39:49.374Z,2.20
2022-12-05T07:42:16.171Z,2.53
2022-12-05T07:44:42.917Z,3.58
2022-12-05T07:47:09.578Z,4.10
2022-12-05T07:49:37.037Z,3.05
2022-12-05T07:52:03.916Z,1.95
2022-12-05T07:54:31.923Z,2.63
2022-12-05T07:56:58.685Z,2.60
2022-12-05T07:59:25.471Z,2.40
2022-12-05T08:01:52.387Z,3.17
2022-12-05T08:04:19.273Z,3.15
2022-12-05T08:06:46.027Z,2.30
2022-12-05T08:09:12.847Z,2.20
2022-12-05T08:11:39.571Z,1.80
2022-12-05T08:14:06.381Z,1.95
2022-12-05T08:16:33.167Z,2.33
2022-12-05T08:19:05.044Z,2.38
2022-12-05T08:21:31.924Z,2.47
2022-12-05T08:23:58.691Z,2.33
2022-12-05T08:26:27.384Z,2.20
2022-12-05T08:28:55.583Z,1.90
2022-12-05T08:31:24.385Z,2.40
2022-12-05T08:33:57.226Z,2.53
2022-12-05T08:36:25.997Z,2.73
2022-12-05T08:38:59.696Z,2.80
2022-12-05T08:41:28.790Z,2.80
2022-12-05T08:44:03.432Z,2.33
2022-12-05T08:46:31.297Z,2.80
2022-12-05T08:48:58.221Z,5.50
2022-12-05T08:51:25.006Z,2.73
2022-12-05T08:53:51.790Z,1.90
2022-12-05T08:56:23.365Z,2.53
2022-12-05T08:58:53.615Z,3.95
2022-12-05T09:01:21.177Z,2.03
2022-12-05T09:03:48.433Z,2.50
2022-12-05T09:06:19.553Z,8.03
2022-12-05T09:08:46.303Z,2.37
2022-12-05T09:11:18.171Z,2.27
2022-12-05T09:13:45.177Z,2.00
2022-12-05T09:16:13.756Z,2.73
2022-12-05T09:18:40.569Z,2.00
2022-12-05T09:21:07.268Z,2.13
2022-12-05T09:23:34.077Z,3.27
2022-12-05T09:26:03.525Z,2.20
2022-12-05T09:28:30.399Z,5.83
2022-12-05T09:31:02.018Z,3.33
2022-12-05T09:33:29.672Z,2.50
2022-12-05T09:35:56.432Z,2.17
2022-12-05T09:38:23.155Z,2.13
2022-12-05T09:41:21.745Z,1.57
2022-12-05T09:43:50.364Z,2.70
2022-12-05T09:46:39.193Z,2.43
2022-12-05T09:49:05.975Z,3.20
2022-12-05T09:51:32.745Z,2.80
2022-12-05T09:53:59.468Z,2.73
2022-12-05T09:56:30.464Z,2.20
2022-12-05T09:58:58.052Z,2.20
2022-12-05T10:01:30.980Z,3.47
2022-12-05T10:04:27.319Z,3.37
2022-12-05T10:07:27.534Z,2.27
2022-12-05T10:10:27.786Z,1.87
2022-12-05T10:13:18.934Z,3.97
2022-12-05T10:15:56.989Z,3.63
2022-12-05T10:18:45.813Z,2.80
2022-12-05T10:21:18.881Z,1.97
2022-12-05T10:24:05.190Z,2.03
2022-12-05T10:26:46.984Z,3.33
2022-12-05T10:29:37.591Z,1.93
2022-12-05T10:32:28.629Z,3.63
2022-12-05T10:35:00.001Z,3.17
2022-12-05T10:37:26.962Z,2.33
2022-12-05T10:39:55.396Z,3.47
2022-12-05T10:42:24.257Z,3.00
2022-12-05T10:44:59.018Z,3.70
2022-12-05T10:47:25.995Z,3.10
2022-12-05T10:49:52.940Z,3.60
2022-12-05T10:52:19.639Z,3.60
2022-12-05T10:54:49.564Z,3.47
2022-12-05T10:57:24.386Z,4.83
2022-12-05T10:59:51.293Z,8.73
2022-12-05T11:02:31.814Z,11.90
2022-12-05T11:05:04.276Z,7.53
2022-12-05T11:07:44.226Z,3.77
2022-12-05T11:10:32.198Z,3.17
2022-12-05T11:12:59.132Z,3.03
2022-12-05T11:15:28.077Z,2.53
2022-12-05T11:17:56.112Z,2.57
2022-12-05T11:20:22.725Z,2.27
2022-12-05T11:22:53.791Z,2.43
2022-12-05T11:25:31.693Z,2.10
2022-12-05T11:28:01.554Z,2.20
2022-12-05T11:30:29.247Z,1.40
2022-12-05T11:33:20.272Z,1.80
2022-12-05T11:35:50.720Z,2.50
2022-12-05T11:38:17.819Z,1.57
2022-12-05T11:40:59.666Z,1.07
2022-12-05T11:44:16.756Z,1.73
2022-12-05T11:47:07.197Z,2.40
2022-12-05T11:50:07.540Z,2.50
2022-12-05T11:53:13.901Z,2.20
2022-12-05T11:55:53.795Z,1.60
2022-12-05T11:58:35.323Z,2.20
2022-12-05T12:01:26.127Z,1.63
2022-12-05T12:04:30.125Z,1.30
2022-12-05T12:07:05.304Z,2.70
2022-12-05T12:09:53.601Z,1.80
2022-12-05T12:12:28.903Z,1.23
2022-12-05T12:15:18.282Z,1.30
2022-12-05T12:17:51.154Z,1.10
2022-12-05T12:20:35.939Z,1.30
2022-12-05T12:23:44.377Z,1.17
2022-12-05T12:26:25.120Z,1.40
2022-12-05T12:29:18.074Z,1.80
2022-12-05T12:31:48.795Z,1.87
2022-12-05T12:34:30.595Z,1.63
2022-12-05T12:37:19.642Z,1.50
2022-12-05T12:40:04.966Z,1.43
2022-12-05T12:42:38.208Z,1.87
2022-12-05T12:45:35.494Z,1.20
2022-12-05T12:48:22.660Z,1.30
2022-12-05T12:50:53.207Z,1.53
2022-12-05T12:53:38.444Z,2.00
2022-12-05T12:56:08.490Z,1.60
2022-12-05T12:58:52.107Z,1.87
2022-12-05T13:01:38.374Z,2.73
2022-12-05T13:04:12.641Z,1.77
2022-12-05T13:06:48.686Z,1.70
2022-12-05T13:09:32.961Z,2.10
2022-12-05T13:12:02.928Z,1.50
2022-12-05T13:14:29.729Z,1.70
2022-12-05T13:16:56.594Z,1.70
2022-12-05T13:19:46.432Z,2.00
2022-12-05T13:22:13.207Z,1.70
2022-12-05T13:24:39.950Z,2.17
2022-12-05T13:27:07.769Z,2.23
2022-12-05T13:29:36.718Z,2.37
2022-12-05T13:32:03.904Z,1.50
2022-12-05T13:34:48.047Z,1.70
2022-12-05T13:37:46.768Z,1.67
2022-12-05T13:40:51.714Z,1.60
2022-12-05T13:43:23.044Z,1.70
2022-12-05T13:46:05.441Z,1.57
2022-12-05T13:48:34.084Z,2.10
2022-12-05T13:51:10.346Z,1.93
2022-12-05T13:53:41.214Z,2.00
2022-12-05T13:56:29.875Z,2.10
2022-12-05T13:58:57.833Z,1.33
2022-12-05T14:01:27.951Z,1.60
2022-12-05T14:03:58.969Z,1.70
2022-12-05T14:06:51.499Z,1.63
2022-12-05T14:09:18.131Z,1.80
2022-12-05T14:12:15.305Z,1.27
2022-12-05T14:14:57.382Z,1.60
2022-12-05T14:17:42.413Z,1.37
2022-12-05T14:20:36.973Z,1.73
2022-12-05T14:23:28.482Z,1.30
2022-12-05T14:26:16.961Z,1.20
2022-12-05T14:28:58.713Z,2.10
2022-12-05T14:31:34.417Z,1.40
2022-12-05T14:34:18.408Z,1.63
2022-12-05T14:37:19.827Z,1.70
2022-12-05T14:39:49.044Z,1.77
2022-12-05T14:42:35.575Z,1.57
2022-12-05T14:45:04.097Z,1.63
2022-12-05T14:47:32.561Z,1.60
2022-12-05T14:50:02.659Z,1.30
2022-12-05T14:52:30.632Z,1.50
2022-12-05T14:55:02.576Z,1.83
2022-12-05T14:57:29.410Z,1.43
2022-12-05T15:00:01.734Z,1.43
2022-12-05T15:02:39.512Z,1.27
2022-12-05T15:05:20.697Z,1.00
2022-12-05T15:07:47.516Z,1.47
2022-12-05T15:10:16.281Z,1.50
2022-12-05T15:12:43.050Z,1.30
2022-12-05T15:15:19.829Z,1.70
2022-12-05T15:17:50.144Z,1.00
2022-12-05T15:20:27.522Z,1.70
2022-12-05T15:22:54.277Z,1.47
2022-12-05T15:25:31.818Z,1.40
2022-12-05T15:28:01.108Z,1.23
2022-12-05T15:30:28.026Z,1.50
2022-12-05T15:32:59.194Z,1.10
2022-12-05T15:35:27.639Z,0.90
2022-12-05T15:37:59.872Z,1.47
2022-12-05T15:40:27.100Z,1.10
2022-12-05T15:42:57.730Z,1.27
2022-12-05T15:45:26.193Z,1.33
2022-12-05T15:48:14.553Z,1.00
2022-12-05T15:50:45.467Z,1.20
2022-12-05T15:53:48.974Z,1.37
2022-12-05T15:56:33.849Z,1.20
2022-12-05T15:59:08.990Z,1.27
2022-12-05T16:01:42.826Z,1.30
2022-12-05T16:04:12.676Z,1.30
2022-12-05T16:06:48.847Z,0.93
2022-12-05T16:09:22.926Z,1.80
2022-12-05T16:12:00.721Z,1.27
2022-12-05T16:14:58.772Z,1.40
2022-12-05T16:17:21.196Z,0.90
2022-12-05T16:19:47.911Z,1.20
2022-12-05T16:22:17.289Z,1.00
2022-12-05T16:24:48.352Z,1.30
2022-12-05T16:27:23.401Z,0.90
2022-12-05T16:30:06.779Z,1.43
2022-12-05T16:32:33.543Z,1.27
2022-12-05T16:35:00.350Z,1.07
2022-12-05T16:37:28.160Z,0.90
2022-12-05T16:39:55.106Z,0.90
2022-12-05T16:42:25.923Z,1.03
2022-12-05T16:45:02.265Z,0.73
2022-12-05T16:47:41.615Z,0.90
2022-12-05T16:50:35.024Z,1.20
2022-12-05T16:53:22.926Z,0.87
2022-12-05T16:55:49.730Z,2.23
2022-12-05T16:58:29.031Z,1.90
2022-12-05T17:01:04.545Z,1.40
2022-12-05T17:03:35.727Z,2.33
2022-12-05T17:06:02.905Z,2.37
2022-12-05T17:08:29.697Z,2.30
2022-12-05T17:10:56.883Z,3.23
2022-12-05T17:13:23.708Z,4.50
2022-12-05T17:15:50.619Z,2.60
2022-12-05T17:18:20.493Z,1.90
2022-12-05T17:20:50.491Z,2.00
2022-12-05T17:23:17.623Z,2.40
2022-12-05T17:25:55.038Z,2.10
2022-12-05T17:28:21.957Z,2.17
2022-12-05T17:30:48.853Z,1.70
2022-12-05T17:33:17.349Z,1.87
2022-12-05T17:35:44.224Z,2.73
2022-12-05T17:38:11.045Z,2.13
2022-12-05T17:40:38.250Z,2.03
2022-12-05T17:43:05.254Z,2.30
2022-12-05T17:45:32.296Z,2.40
2022-12-05T17:47:59.149Z,2.23
2022-12-05T17:50:26.123Z,1.87
2022-12-05T17:52:55.223Z,2.60
2022-12-05T17:55:28.886Z,2.10
2022-12-05T17:57:55.790Z,2.20
2022-12-05T18:00:23.486Z,2.50
2022-12-05T18:02:50.961Z,2.60
2022-12-05T18:05:17.901Z,2.40
2022-12-05T18:07:45.152Z,2.10
2022-12-05T18:10:14.381Z,3.73
2022-12-05T18:12:41.244Z,3.70
2022-12-05T18:15:08.412Z,3.70
2022-12-05T18:17:35.480Z,3.20
2022-12-05T18:20:02.305Z,3.57
2022-12-05T18:22:29.061Z,3.00
2022-12-05T18:24:58.334Z,3.00
2022-12-05T18:27:25.500Z,3.17
2022-12-05T18:29:52.251Z,3.80
2022-12-05T18:32:20.757Z,3.07
2022-12-05T18:34:47.526Z,2.80
2022-12-05T18:37:16.312Z,3.40
2022-12-05T18:39:43.051Z,3.20
2022-12-05T18:42:15.075Z,3.50
2022-12-05T18:44:42.139Z,3.20
2022-12-05T18:47:08.933Z,3.67
2022-12-05T18:49:35.743Z,5.13
2022-12-05T18:52:02.546Z,3.50
2022-12-05T18:54:29.304Z,4.23
2022-12-05T18:56:56.075Z,2.43
2022-12-05T18:59:23.976Z,1.70
2022-12-05T19:01:53.478Z,2.40
2022-12-05T19:04:21.449Z,3.43
2022-12-05T19:06:52.964Z,1.60
2022-12-05T19:09:24.316Z,2.50
2022-12-05T19:11:55.001Z,2.10
2022-12-05T19:14:21.901Z,1.40
2022-12-05T19:16:52.590Z,1.70
2022-12-05T19:19:23.109Z,1.17
2022-12-05T19:21:49.872Z,1.80
2022-12-05T19:24:18.281Z,1.93
2022-12-05T19:26:45.221Z,2.53
2022-12-05T19:29:12.350Z,2.40
2022-12-05T19:31:39.454Z,1.83
2022-12-05T19:34:06.906Z,1.20
2022-12-05T19:36:35.665Z,0.77
2022-12-05T19:39:06.482Z,0.97
2022-12-05T19:41:33.148Z,1.00
2022-12-05T19:43:59.971Z,1.00
2022-12-05T19:46:29.794Z,0.90
2022-12-05T19:48:57.581Z,0.70
2022-12-05T19:51:24.942Z,0.80
2022-12-05T19:53:51.782Z,0.97
2022-12-05T19:56:20.563Z,0.90
2022-12-05T19:58:47.472Z,1.17
2022-12-05T20:01:28.064Z,0.80
2022-12-05T20:04:02.621Z,1.00
2022-12-05T20:06:34.170Z,0.90
2022-12-05T20:09:01.025Z,1.00
2022-12-05T20:11:29.039Z,1.30
2022-12-05T20:13:56.771Z,0.83
2022-12-05T20:16:25.981Z,1.10
2022-12-05T20:18:53.135Z,1.30
2022-12-05T20:21:22.003Z,1.20
2022-12-05T20:23:49.160Z,1.30
2022-12-05T20:26:20.649Z,0.90
2022-12-05T20:28:47.539Z,1.97
2022-12-05T20:31:16.284Z,1.20
2022-12-05T20:33:43.297Z,1.63
2022-12-05T20:36:14.551Z,1.97
2022-12-05T20:38:41.483Z,1.50
2022-12-05T20:41:11.062Z,1.70
2022-12-05T20:43:37.966Z,1.03
2022-12-05T20:46:08.938Z,1.30
2022-12-05T20:48:35.803Z,1.27
2022-12-05T20:51:06.584Z,1.80
2022-12-05T20:53:34.988Z,1.97
2022-12-05T20:56:11.609Z,0.97
2022-12-05T20:58:38.621Z,1.27
2022-12-05T21:01:07.668Z,1.37
2022-12-05T21:03:35.007Z,1.30
2022-12-05T21:06:07.363Z,1.67
2022-12-05T21:08:34.168Z,1.10
2022-12-05T21:11:00.917Z,1.80
2022-12-05T21:13:27.685Z,1.57
2022-12-05T21:15:54.486Z,1.55
2022-12-05T21:18:21.232Z,1.30
2022-12-05T21:20:58.539Z,1.70
2022-12-05T21:23:25.577Z,1.43
2022-12-05T21:25:52.489Z,1.77
2022-12-05T21:28:19.194Z,1.50
2022-12-05T21:30:45.950Z,1.67
2022-12-05T21:33:12.760Z,1.70
2022-12-05T21:35:39.471Z,2.10
2022-12-05T21:38:06.275Z,1.77
2022-12-05T21:40:32.971Z,2.30
2022-12-05T21:42:59.670Z,2.07
2022-12-05T21:45:26.463Z,1.63
2022-12-05T21:47:53.852Z,1.80
2022-12-05T21:50:20.605Z,4.13
2022-12-05T21:52:47.259Z,2.23
2022-12-05T21:55:14.057Z,2.80
2022-12-05T21:57:40.821Z,1.80
2022-12-05T22:00:09.218Z,1.83
2022-12-05T22:02:36.016Z,1.30
2022-12-05T22:05:02.717Z,1.63
2022-12-05T22:07:29.545Z,1.40
2022-12-05T22:09:56.343Z,1.00
2022-12-05T22:12:23.379Z,1.37
2022-12-05T22:14:50.433Z,1.37
2022-12-05T22:17:17.247Z,1.10
2022-12-05T22:19:43.982Z,1.43
2022-12-05T22:22:10.882Z,1.77
2022-12-05T22:24:39.080Z,1.40
2022-12-05T22:27:05.734Z,1.43
2022-12-05T22:29:32.431Z,1.50
2022-12-05T22:31:59.156Z,1.10
2022-12-05T22:34:25.884Z,1.30
2022-12-05T22:36:52.635Z,1.00
2022-12-05T22:39:19.294Z,1.10
2022-12-05T22:41:45.981Z,1.23
2022-12-05T22:44:12.708Z,1.40
2022-12-05T22:46:39.402Z,1.40
2022-12-05T22:49:06.167Z,1.17
2022-12-05T22:51:33.033Z,0.83
2022-12-05T22:53:59.742Z,1.40
2022-12-05T22:56:27.896Z,1.13
2022-12-05T22:58:55.895Z,1.20
2022-12-05T23:01:28.220Z,1.17
2022-12-05T23:04:07.275Z,1.00
2022-12-05T23:06:34.792Z,1.40
2022-12-05T23:09:02.041Z,1.00
2022-12-05T23:11:29.872Z,1.40
2022-12-05T23:14:01.507Z,1.90
2022-12-05T23:16:30.011Z,1.45
2022-12-05T23:18:58.409Z,1.50
2022-12-05T23:21:26.720Z,1.57
2022-12-05T23:23:55.132Z,1.20
2022-12-05T23:26:23.550Z,1.40
2022-12-05T23:28:50.388Z,1.60
2022-12-05T23:31:17.496Z,2.37
2022-12-05T23:33:44.278Z,1.63
2022-12-05T23:36:11.452Z,1.27
2022-12-05T23:38:38.724Z,1.10
2022-12-05T23:41:12.174Z,1.50
2022-12-05T23:43:39.017Z,1.40
2022-12-05T23:46:06.174Z,1.00
2022-12-05T23:48:33.085Z,1.00
2022-12-05T23:51:07.861Z,0.90
2022-12-05T23:53:36.037Z,0.97
2022-12-05T23:56:03.761Z,0.70
2022-12-05T23:58:30.892Z,1.00
